createdAt,value
2022-11-16T00:00:33.298Z,9.60
2022-11-16T00:05:36.437Z,7.20
2022-11-16T00:10:35.517Z,7.40
2022-11-16T00:15:36.759Z,6.40
2022-11-16T00:20:37.856Z,7.40
2022-11-16T00:25:39.942Z,6.70
2022-11-16T00:30:39.036Z,6.70
2022-11-16T00:35:42.149Z,7.60
2022-11-16T00:40:41.267Z,6.70
2022-11-16T00:45:42.381Z,7.10
2022-11-16T00:50:44.487Z,7.60
2022-11-16T00:55:43.621Z,7.90
2022-11-16T01:00:45.792Z,6.70
2022-11-16T01:05:44.964Z,8.40
2022-11-16T01:10:46.248Z,8.40
2022-11-16T01:15:48.378Z,8.20
2022-11-16T01:20:48.497Z,7.40
2022-11-16T01:25:48.648Z,7.30
2022-11-16T01:30:47.778Z,8.60
2022-11-16T01:35:48.938Z,10.10
2022-11-16T01:40:50.059Z,9.00
2022-11-16T01:45:51.156Z,9.20
2022-11-16T01:50:52.292Z,9.40
2022-11-16T01:55:53.423Z,9.90
2022-11-16T02:00:55.572Z,10.80
2022-11-16T02:05:53.715Z,10.30
2022-11-16T02:10:54.809Z,11.10
2022-11-16T02:15:56.989Z,10.90
2022-11-16T02:20:56.080Z,11.60
2022-11-16T02:25:57.294Z,11.60
2022-11-16T02:30:58.491Z,11.60
2022-11-16T02:36:00.583Z,11.50
2022-11-16T02:40:59.679Z,13.50
2022-11-16T02:46:01.807Z,13.10
2022-11-16T02:51:00.910Z,13.60
2022-11-16T02:56:03.005Z,13.50
2022-11-16T03:01:03.122Z,11.70
2022-11-16T03:06:02.244Z,11.60
2022-11-16T03:11:03.339Z,10.40
2022-11-16T03:16:05.435Z,8.90
2022-11-16T03:21:04.583Z,8.60
2022-11-16T03:26:05.674Z,10.40
2022-11-16T03:31:05.765Z,11.30
2022-11-16T03:36:06.866Z,10.30
2022-11-16T03:41:08.952Z,10.70
2022-11-16T03:46:08.165Z,12.80
2022-11-16T03:51:09.250Z,13.70
2022-11-16T03:56:10.383Z,19.00
2022-11-16T04:01:12.571Z,19.00
2022-11-16T04:06:11.663Z,18.90
2022-11-16T04:11:12.778Z,20.50
2022-11-16T04:16:13.869Z,20.30
2022-11-16T04:21:14.959Z,20.90
2022-11-16T04:26:16.044Z,19.60
2022-11-16T04:31:18.131Z,17.30
2022-11-16T04:36:20.558Z,18.30
2022-11-16T04:41:17.965Z,19.20
2022-11-16T04:46:19.076Z,20.00
2022-11-16T04:51:20.194Z,17.40
2022-11-16T04:56:21.288Z,18.40
2022-11-16T05:01:23.455Z,17.10
2022-11-16T05:06:22.578Z,14.30
2022-11-16T05:11:23.721Z,13.50
2022-11-16T05:16:24.875Z,18.00
2022-11-16T05:21:26.023Z,18.10
2022-11-16T05:26:27.146Z,18.50
2022-11-16T05:31:29.261Z,17.90
2022-11-16T05:36:28.475Z,16.50
2022-11-16T05:41:29.599Z,16.00
2022-11-16T05:46:30.745Z,14.40
2022-11-16T05:51:32.916Z,17.00
2022-11-16T05:56:32.120Z,15.90
2022-11-16T06:01:34.380Z,15.60
2022-11-16T06:06:34.470Z,19.20
2022-11-16T06:11:35.983Z,17.30
2022-11-16T06:16:34.435Z,18.40
2022-11-16T06:21:34.576Z,17.20
2022-11-16T06:26:34.648Z,18.10
2022-11-16T06:31:34.746Z,17.60
2022-11-16T06:36:33.822Z,16.20
2022-11-16T06:41:41.230Z,17.80
2022-11-16T06:46:34.606Z,16.60
2022-11-16T06:51:35.815Z,20.00
2022-11-16T06:56:37.941Z,17.50
2022-11-16T07:01:37.116Z,17.70
2022-11-16T07:06:38.237Z,16.30
2022-11-16T07:11:39.463Z,16.60
2022-11-16T07:16:41.551Z,17.60
2022-11-16T07:21:41.661Z,17.20
2022-11-16T07:26:40.784Z,19.00
2022-11-16T07:31:42.870Z,17.40
2022-11-16T07:36:42.979Z,17.10
2022-11-16T07:41:42.106Z,16.80
2022-11-16T07:46:47.574Z,17.10
2022-11-16T07:51:45.383Z,17.00
2022-11-16T07:56:44.505Z,16.80
2022-11-16T08:01:45.678Z,16.80
2022-11-16T08:06:46.899Z,16.80
2022-11-16T08:11:48.972Z,14.20
2022-11-16T08:16:48.091Z,15.10
2022-11-16T08:21:49.292Z,17.50
2022-11-16T08:26:51.376Z,18.80
2022-11-16T08:31:50.530Z,15.50
2022-11-16T08:36:51.636Z,16.30
2022-11-16T08:41:52.755Z,15.10
2022-11-16T08:46:54.862Z,15.30
2022-11-16T08:51:55.013Z,13.00
2022-11-16T08:56:54.116Z,14.10
2022-11-16T09:01:56.279Z,16.50
2022-11-16T09:06:57.435Z,18.20
2022-11-16T09:11:56.599Z,16.30
2022-11-16T09:16:57.714Z,17.70
2022-11-16T09:21:58.813Z,17.50
2022-11-16T09:27:00.930Z,18.70
2022-11-16T09:32:00.115Z,17.10
2022-11-16T09:37:01.273Z,17.00
2022-11-16T09:42:02.379Z,15.20
2022-11-16T09:47:04.540Z,17.50
2022-11-16T09:52:03.693Z,16.10
2022-11-16T09:57:10.972Z,14.90
2022-11-16T10:02:06.839Z,13.40
2022-11-16T10:07:06.010Z,12.60
2022-11-16T10:12:07.144Z,11.40
2022-11-16T10:17:09.270Z,9.50
2022-11-16T10:22:09.432Z,6.00
2022-11-16T10:27:09.572Z,4.90
2022-11-16T10:32:08.791Z,4.40
2022-11-16T10:37:09.952Z,4.40
2022-11-16T10:42:12.273Z,4.80
2022-11-16T10:47:11.438Z,2.10
2022-11-16T10:52:13.650Z,3.40
2022-11-16T10:57:12.972Z,2.90
2022-11-16T11:02:14.226Z,3.60
2022-11-16T11:07:16.495Z,2.70
2022-11-16T11:12:16.658Z,2.40
2022-11-16T11:17:15.832Z,2.60
2022-11-16T11:22:16.988Z,4.00
2022-11-16T11:27:18.229Z,5.30
2022-11-16T11:32:23.872Z,5.20
2022-11-16T11:37:19.353Z,4.00
2022-11-16T11:42:20.443Z,2.00
2022-11-16T11:47:56.209Z,1.90
2022-11-16T11:52:22.486Z,0.60
2022-11-16T11:57:23.613Z,1.80
2022-11-16T12:02:24.792Z,0.80
2022-11-16T12:07:26.115Z,1.10
2022-11-16T12:12:28.249Z,2.10
2022-11-16T12:17:27.404Z,2.50
2022-11-16T12:22:28.783Z,2.40
2022-11-16T12:27:29.906Z,2.40
2022-11-16T12:32:32.014Z,2.00
2022-11-16T12:37:31.179Z,2.40
2022-11-16T12:42:32.420Z,1.30
2022-11-16T12:47:33.521Z,2.40
2022-11-16T12:52:34.619Z,1.40
2022-11-16T12:57:35.727Z,2.40
2022-11-16T13:02:36.808Z,2.90
2022-11-16T13:07:38.047Z,3.30
2022-11-16T13:12:39.203Z,2.10
2022-11-16T13:17:40.366Z,3.40
2022-11-16T13:22:41.472Z,2.50
2022-11-16T13:27:43.583Z,2.40
2022-11-16T13:32:42.828Z,2.50
2022-11-16T13:37:44.928Z,1.30
2022-11-16T13:42:44.051Z,1.60
2022-11-16T13:47:44.160Z,3.20
2022-11-16T13:53:36.357Z,3.40
2022-11-16T13:57:45.373Z,1.20
2022-11-16T14:02:46.558Z,2.00
2022-11-16T14:07:47.669Z,4.80
2022-11-16T14:12:48.788Z,2.90
2022-11-16T14:17:50.864Z,3.70
2022-11-16T14:22:50.025Z,3.90
2022-11-16T14:27:51.153Z,3.30
2022-11-16T14:32:52.288Z,7.10
2022-11-16T14:37:53.448Z,5.70
2022-11-16T14:43:15.553Z,7.80
2022-11-16T14:47:54.495Z,4.60
2022-11-16T14:52:55.609Z,3.00
2022-11-16T14:57:56.717Z,2.50
2022-11-16T15:03:02.611Z,2.30
2022-11-16T15:07:58.205Z,4.40
2022-11-16T15:12:59.320Z,4.70
2022-11-16T15:18:00.427Z,12.80
2022-11-16T15:23:01.532Z,7.00
2022-11-16T15:28:02.638Z,7.70
2022-11-16T15:33:03.788Z,5.80
2022-11-16T15:38:04.886Z,4.70
2022-11-16T15:43:06.007Z,6.60
2022-11-16T15:48:09.080Z,5.30
2022-11-16T15:53:08.225Z,13.30
2022-11-16T15:58:09.309Z,3.60
2022-11-16T16:03:10.465Z,3.90
2022-11-16T16:08:11.544Z,12.10
2022-11-16T16:13:13.655Z,9.30
2022-11-16T16:18:12.796Z,8.30
2022-11-16T16:23:12.948Z,9.60
2022-11-16T16:28:13.088Z,13.60
2022-11-16T16:33:15.207Z,8.20
2022-11-16T16:38:14.988Z,5.80
2022-11-16T16:43:15.133Z,5.20
2022-11-16T16:48:14.236Z,4.50
2022-11-16T16:53:16.467Z,2.40
2022-11-16T16:58:15.942Z,3.70
2022-11-16T17:03:18.278Z,3.00
2022-11-16T17:08:19.723Z,2.30
2022-11-16T17:13:18.911Z,3.20
2022-11-16T17:18:21.201Z,2.90
2022-11-16T17:23:21.514Z,2.00
2022-11-16T17:28:20.784Z,6.50
2022-11-16T17:33:22.007Z,4.50
2022-11-16T17:38:23.349Z,10.50
2022-11-16T17:43:25.618Z,8.60
2022-11-16T17:48:25.414Z,10.20
2022-11-16T17:53:32.294Z,9.30
2022-11-16T17:58:26.787Z,9.50
2022-11-16T18:03:28.403Z,9.30
2022-11-16T18:08:28.081Z,5.00
2022-11-16T18:13:27.474Z,5.90
2022-11-16T18:18:28.855Z,4.10
2022-11-16T18:23:31.760Z,5.30
2022-11-16T18:28:32.337Z,4.90
2022-11-16T18:33:32.854Z,3.90
2022-11-16T18:38:33.524Z,5.30
2022-11-16T18:43:33.325Z,2.90
2022-11-16T18:48:33.387Z,2.40
2022-11-16T18:53:36.025Z,2.40
2022-11-16T18:58:51.859Z,5.20
2022-11-16T19:03:37.889Z,2.70
2022-11-16T19:08:37.364Z,2.30
2022-11-16T19:13:37.656Z,2.30
2022-11-16T19:18:37.874Z,2.20
2022-11-16T19:23:37.647Z,2.20
2022-11-16T19:28:36.986Z,2.00
2022-11-16T19:33:38.768Z,1.80
2022-11-16T19:38:39.337Z,2.00
2022-11-16T19:43:38.899Z,1.20
2022-11-16T19:48:38.362Z,1.80
2022-11-16T19:53:41.398Z,1.40
2022-11-16T19:58:41.900Z,1.50
2022-11-16T20:03:41.279Z,2.60
2022-11-16T20:08:42.910Z,1.20
2022-11-16T20:13:42.154Z,1.50
2022-11-16T20:18:43.515Z,2.40
2022-11-16T20:23:44.904Z,1.90
2022-11-16T20:28:46.310Z,2.70
2022-11-16T20:33:47.807Z,2.40
2022-11-16T20:38:47.452Z,3.30
2022-11-16T20:43:48.852Z,1.30
2022-11-16T20:48:50.061Z,0.70
2022-11-16T20:53:52.027Z,1.80
2022-11-16T20:58:51.341Z,0.80
2022-11-16T21:03:54.476Z,3.00
2022-11-16T21:08:54.620Z,2.60
2022-11-16T21:13:53.809Z,17.30
2022-11-16T21:18:55.042Z,1.00
2022-11-16T21:23:56.160Z,3.50
2022-11-16T21:28:57.282Z,6.60
2022-11-16T21:33:58.437Z,3.30
2022-11-16T21:38:59.617Z,2.30
2022-11-16T21:44:00.717Z,1.10
2022-11-16T21:49:01.846Z,0.90
2022-11-16T21:54:04.980Z,3.90
2022-11-16T21:59:04.136Z,1.00
2022-11-16T22:04:09.196Z,1.20
2022-11-16T22:09:06.398Z,2.60
2022-11-16T22:14:08.529Z,1.50
2022-11-16T22:19:07.708Z,4.70
2022-11-16T22:24:08.848Z,0.90
2022-11-16T22:29:12.122Z,2.00
2022-11-16T22:34:11.342Z,1.80
2022-11-16T22:39:14.459Z,2.50
2022-11-16T22:44:13.617Z,0.90
2022-11-16T22:49:14.779Z,1.80
2022-11-16T22:54:15.881Z,1.20
2022-11-16T22:59:17.006Z,2.60
2022-11-16T23:04:18.086Z,3.60
2022-11-16T23:09:19.204Z,2.50
2022-11-16T23:14:20.389Z,6.40
2022-11-16T23:19:21.486Z,1.60
2022-11-16T23:24:22.577Z,1.50
2022-11-16T23:29:23.758Z,4.90
2022-11-16T23:34:25.868Z,4.00
2022-11-16T23:39:24.971Z,2.40
2022-11-16T23:44:26.156Z,4.70
2022-11-16T23:49:27.310Z,2.30
2022-11-16T23:54:28.477Z,1.90
2022-11-16T23:59:29.649Z,1.10
